createdAt,value
2023-01-10T00:01:46.005Z,4.45
2023-01-10T00:04:14.287Z,4.38
2023-01-10T00:06:42.429Z,3.97
2023-01-10T00:09:11.830Z,4.65
2023-01-10T00:11:57.981Z,5.05
2023-01-10T00:14:29.047Z,3.28
2023-01-10T00:16:57.553Z,5.18
2023-01-10T00:19:25.364Z,3.65
2023-01-10T00:21:53.557Z,2.67
2023-01-10T00:24:22.394Z,2.72
2023-01-10T00:26:51.776Z,3.22
2023-01-10T00:29:26.103Z,2.47
2023-01-10T00:31:54.593Z,2.65
2023-01-10T00:34:23.323Z,3.70
2023-01-10T00:36:51.080Z,4.75
2023-01-10T00:39:21.560Z,3.78
2023-01-10T00:42:07.925Z,5.13
2023-01-10T00:44:35.741Z,5.22
2023-01-10T00:47:03.582Z,5.65
2023-01-10T00:49:33.832Z,7.03
2023-01-10T00:52:02.873Z,6.40
2023-01-10T00:54:30.654Z,5.22
2023-01-10T00:57:01.393Z,5.30
2023-01-10T00:59:30.362Z,4.18
2023-01-10T01:01:58.292Z,3.08
2023-01-10T01:04:27.428Z,3.35
2023-01-10T01:06:55.089Z,2.63
2023-01-10T01:09:22.746Z,3.08
2023-01-10T01:11:50.447Z,2.65
2023-01-10T01:14:18.201Z,3.15
2023-01-10T01:16:45.863Z,4.38
2023-01-10T01:19:13.588Z,3.22
2023-01-10T01:21:41.299Z,1.95
2023-01-10T01:24:10.963Z,3.70
2023-01-10T01:26:40.371Z,3.58
2023-01-10T01:29:08.241Z,3.67
2023-01-10T01:31:36.070Z,2.50
2023-01-10T01:34:04.002Z,2.45
2023-01-10T01:36:31.925Z,2.92
2023-01-10T01:38:59.721Z,3.53
2023-01-10T01:41:45.888Z,2.10
2023-01-10T01:44:18.796Z,2.92
2023-01-10T01:47:09.244Z,1.58
2023-01-10T01:49:40.661Z,2.70
2023-01-10T01:52:22.556Z,5.10
2023-01-10T01:54:50.618Z,3.38
2023-01-10T01:57:24.883Z,2.17
2023-01-10T01:59:55.322Z,3.78
2023-01-10T02:02:27.357Z,2.80
2023-01-10T02:05:00.449Z,3.50
2023-01-10T02:07:32.078Z,2.33
2023-01-10T02:10:04.967Z,1.95
2023-01-10T02:12:33.390Z,4.22
2023-01-10T02:15:02.955Z,3.53
2023-01-10T02:17:31.376Z,2.45
2023-01-10T02:20:03.601Z,1.95
2023-01-10T02:22:53.262Z,3.70
2023-01-10T02:25:51.355Z,3.05
2023-01-10T02:28:22.442Z,2.40
2023-01-10T02:31:16.098Z,3.10
2023-01-10T02:33:58.059Z,4.97
2023-01-10T02:36:39.951Z,2.47
2023-01-10T02:39:19.910Z,2.65
2023-01-10T02:42:11.897Z,3.92
2023-01-10T02:44:50.727Z,2.72
2023-01-10T02:47:19.476Z,3.90
2023-01-10T02:49:52.272Z,2.35
2023-01-10T02:52:27.905Z,3.60
2023-01-10T02:55:00.900Z,4.32
2023-01-10T02:58:08.350Z,4.45
2023-01-10T03:00:45.608Z,3.17
2023-01-10T03:03:33.760Z,2.30
2023-01-10T03:06:26.671Z,2.05
2023-01-10T03:09:06.621Z,1.73
2023-01-10T03:11:41.195Z,3.50
2023-01-10T03:14:16.725Z,1.95
2023-01-10T03:16:49.331Z,3.05
2023-01-10T03:19:21.708Z,3.15
2023-01-10T03:21:54.032Z,2.50
2023-01-10T03:24:29.984Z,2.08
2023-01-10T03:27:20.425Z,2.38
2023-01-10T03:30:15.917Z,4.13
2023-01-10T03:32:44.365Z,2.20
2023-01-10T03:35:14.046Z,2.17
2023-01-10T03:37:59.086Z,2.35
2023-01-10T03:40:46.930Z,3.17
2023-01-10T03:43:45.196Z,2.95
2023-01-10T03:46:26.343Z,2.17
2023-01-10T03:48:55.458Z,2.40
2023-01-10T03:51:24.065Z,3.05
2023-01-10T03:53:51.808Z,2.53
2023-01-10T03:56:19.650Z,2.67
2023-01-10T03:58:47.821Z,3.78
2023-01-10T04:01:15.679Z,2.47
2023-01-10T04:03:43.738Z,2.40
2023-01-10T04:06:11.506Z,3.03
2023-01-10T04:08:39.243Z,2.72
2023-01-10T04:11:07.083Z,1.98
2023-01-10T04:13:35.171Z,2.33
2023-01-10T04:16:03.089Z,1.65
2023-01-10T04:18:30.940Z,2.40
2023-01-10T04:20:58.869Z,1.80
2023-01-10T04:23:26.747Z,3.03
2023-01-10T04:25:54.434Z,2.60
2023-01-10T04:28:24.441Z,3.33
2023-01-10T04:30:52.604Z,2.47
2023-01-10T04:33:20.448Z,3.03
2023-01-10T04:35:52.391Z,2.00
2023-01-10T04:38:20.566Z,2.42
2023-01-10T04:40:56.031Z,2.83
2023-01-10T04:43:25.249Z,2.97
2023-01-10T04:45:53.070Z,2.50
2023-01-10T04:48:21.274Z,2.10
2023-01-10T04:50:52.581Z,2.53
2023-01-10T04:53:21.344Z,2.13
2023-01-10T04:55:49.154Z,2.20
2023-01-10T04:58:17.274Z,3.08
2023-01-10T05:00:45.140Z,2.35
2023-01-10T05:03:13.043Z,2.70
2023-01-10T05:05:40.759Z,2.75
2023-01-10T05:08:08.500Z,2.03
2023-01-10T05:10:36.284Z,3.05
2023-01-10T05:13:04.191Z,1.95
2023-01-10T05:15:31.845Z,2.63
2023-01-10T05:18:01.282Z,3.30
2023-01-10T05:20:29.113Z,2.88
2023-01-10T05:22:57.060Z,2.92
2023-01-10T05:25:24.963Z,2.35
2023-01-10T05:27:52.746Z,2.92
2023-01-10T05:30:20.704Z,2.13
2023-01-10T05:32:48.421Z,2.88
2023-01-10T05:35:17.398Z,4.40
2023-01-10T05:37:45.814Z,2.75
2023-01-10T05:40:13.817Z,3.80
2023-01-10T05:42:42.205Z,3.72
2023-01-10T05:45:10.462Z,3.03
2023-01-10T05:47:39.755Z,2.25
2023-01-10T05:50:08.246Z,2.95
2023-01-10T05:52:36.136Z,5.85
2023-01-10T05:55:04.240Z,4.70
2023-01-10T05:57:32.278Z,3.25
2023-01-10T06:00:00.810Z,4.45
2023-01-10T06:02:29.294Z,3.03
2023-01-10T06:04:57.370Z,3.55
2023-01-10T06:07:25.565Z,2.88
2023-01-10T06:09:53.252Z,3.97
2023-01-10T06:12:21.232Z,4.45
2023-01-10T06:14:48.967Z,3.10
2023-01-10T06:17:19.283Z,4.22
2023-01-10T06:19:49.752Z,2.78
2023-01-10T06:22:17.552Z,14.60
2023-01-10T06:24:46.634Z,19.85
2023-01-10T06:27:14.511Z,24.02
2023-01-10T06:29:42.268Z,24.42
2023-01-10T06:32:10.328Z,16.45
2023-01-10T06:34:37.994Z,12.13
2023-01-10T06:37:05.984Z,12.88
2023-01-10T06:39:33.726Z,14.27
2023-01-10T06:42:02.491Z,9.65
2023-01-10T06:44:30.119Z,8.25
2023-01-10T06:46:57.911Z,7.35
2023-01-10T06:49:25.635Z,7.72
2023-01-10T06:51:53.527Z,3.72
2023-01-10T06:54:21.660Z,5.55
2023-01-10T06:56:49.612Z,2.85
2023-01-10T06:59:17.441Z,4.07
2023-01-10T07:01:45.408Z,4.20
2023-01-10T07:04:13.385Z,4.43
2023-01-10T07:06:41.792Z,5.68
2023-01-10T07:09:09.513Z,5.57
2023-01-10T07:11:37.620Z,3.33
2023-01-10T07:14:05.598Z,3.47
2023-01-10T07:16:33.276Z,2.85
2023-01-10T07:19:01.272Z,3.40
2023-01-10T07:21:29.062Z,3.17
2023-01-10T07:23:56.816Z,2.10
2023-01-10T07:26:24.598Z,4.20
2023-01-10T07:28:52.338Z,1.65
2023-01-10T07:31:23.670Z,2.47
2023-01-10T07:33:52.853Z,4.70
2023-01-10T07:36:21.664Z,3.33
2023-01-10T07:38:49.345Z,3.35
2023-01-10T07:41:17.133Z,6.43
2023-01-10T07:43:44.833Z,10.95
2023-01-10T07:46:12.744Z,13.52
2023-01-10T07:48:43.169Z,11.63
2023-01-10T07:51:10.947Z,9.93
2023-01-10T07:53:39.351Z,6.47
2023-01-10T07:56:07.389Z,7.35
2023-01-10T07:58:35.962Z,3.70
2023-01-10T08:01:05.547Z,5.55
2023-01-10T08:03:33.821Z,2.92
2023-01-10T08:06:06.772Z,15.35
2023-01-10T08:08:35.226Z,55.83
2023-01-10T08:11:03.668Z,55.55
2023-01-10T08:13:34.492Z,46.53
2023-01-10T08:16:06.441Z,29.70
2023-01-10T08:18:35.221Z,24.38
2023-01-10T08:21:03.122Z,23.15
2023-01-10T08:23:32.516Z,16.02
2023-01-10T08:26:00.376Z,14.30
2023-01-10T08:28:29.247Z,9.88
2023-01-10T08:30:57.423Z,7.35
2023-01-10T08:33:25.688Z,6.40
2023-01-10T08:35:53.442Z,8.32
2023-01-10T08:38:21.035Z,8.95
2023-01-10T08:40:48.934Z,6.53
2023-01-10T08:43:18.034Z,6.82
2023-01-10T08:45:45.907Z,6.95
2023-01-10T08:48:14.435Z,7.47
2023-01-10T08:50:42.150Z,6.72
2023-01-10T08:53:10.870Z,8.30
2023-01-10T08:55:38.685Z,10.93
2023-01-10T08:58:06.848Z,10.43
2023-01-10T09:00:34.696Z,7.13
2023-01-10T09:03:02.396Z,7.65
2023-01-10T09:05:30.162Z,5.70
2023-01-10T09:08:02.427Z,7.22
2023-01-10T09:10:30.789Z,4.50
2023-01-10T09:13:01.992Z,4.97
2023-01-10T09:15:33.196Z,6.38
2023-01-10T09:18:04.832Z,6.75
2023-01-10T09:20:34.944Z,9.18
2023-01-10T09:23:11.031Z,5.47
2023-01-10T09:25:39.266Z,5.07
2023-01-10T09:28:07.242Z,7.50
2023-01-10T09:30:35.367Z,3.88
2023-01-10T09:33:04.190Z,4.88
2023-01-10T09:35:34.964Z,5.60
2023-01-10T09:38:03.338Z,4.38
2023-01-10T09:40:58.139Z,7.18
2023-01-10T09:43:35.947Z,6.72
2023-01-10T09:46:21.298Z,7.10
2023-01-10T09:49:07.422Z,5.88
2023-01-10T09:51:40.712Z,4.68
2023-01-10T09:54:33.470Z,5.10
2023-01-10T09:57:02.357Z,4.22
2023-01-10T09:59:38.331Z,5.50
2023-01-10T10:02:25.268Z,7.07
2023-01-10T10:05:02.028Z,5.28
2023-01-10T10:07:30.721Z,6.28
2023-01-10T10:09:58.916Z,6.47
2023-01-10T10:12:45.993Z,7.95
2023-01-10T10:15:29.095Z,5.20
2023-01-10T10:18:16.852Z,8.05
2023-01-10T10:20:58.994Z,5.22
2023-01-10T10:24:00.356Z,3.78
2023-01-10T10:26:39.844Z,4.47
2023-01-10T10:29:45.475Z,3.67
2023-01-10T10:32:28.342Z,3.25
2023-01-10T10:35:05.395Z,3.97
2023-01-10T10:37:48.319Z,5.22
2023-01-10T10:40:22.297Z,3.47
2023-01-10T10:42:54.055Z,5.07
2023-01-10T10:45:54.712Z,7.25
2023-01-10T10:48:27.417Z,6.28
2023-01-10T10:51:27.504Z,8.80
2023-01-10T10:53:57.552Z,5.63
2023-01-10T10:56:27.798Z,6.85
2023-01-10T10:58:58.636Z,8.55
2023-01-10T11:01:27.191Z,11.13
2023-01-10T11:04:02.419Z,12.98
2023-01-10T11:06:34.290Z,10.15
2023-01-10T11:09:04.983Z,9.65
2023-01-10T11:11:35.880Z,9.90
2023-01-10T11:14:06.385Z,8.18
2023-01-10T11:16:37.337Z,8.15
2023-01-10T11:19:19.740Z,8.65
2023-01-10T11:22:08.561Z,6.55
2023-01-10T11:24:50.349Z,5.15
2023-01-10T11:27:24.672Z,5.78
2023-01-10T11:30:03.694Z,6.82
2023-01-10T11:32:35.803Z,7.80
2023-01-10T11:35:09.829Z,12.25
2023-01-10T11:37:37.591Z,9.75
2023-01-10T11:40:24.232Z,12.15
2023-01-10T11:42:59.234Z,12.93
2023-01-10T11:45:31.579Z,10.13
2023-01-10T11:48:08.649Z,4.13
2023-01-10T11:50:41.381Z,6.95
2023-01-10T11:53:37.092Z,8.65
2023-01-10T11:56:05.678Z,9.23
2023-01-10T11:58:36.841Z,41.60
2023-01-10T12:01:04.927Z,51.78
2023-01-10T12:03:37.251Z,35.65
2023-01-10T12:06:09.511Z,25.25
2023-01-10T12:08:39.583Z,17.98
2023-01-10T12:11:25.244Z,15.45
2023-01-10T12:13:58.840Z,9.90
2023-01-10T12:16:32.447Z,9.23
2023-01-10T12:19:04.821Z,8.68
2023-01-10T12:21:41.475Z,8.40
2023-01-10T12:24:19.292Z,10.13
2023-01-10T12:26:48.140Z,6.90
2023-01-10T12:29:19.635Z,6.88
2023-01-10T12:31:47.502Z,5.95
2023-01-10T12:34:23.388Z,7.72
2023-01-10T12:36:58.573Z,6.88
2023-01-10T12:39:35.196Z,8.07
2023-01-10T12:42:37.671Z,4.43
2023-01-10T12:45:08.812Z,6.60
2023-01-10T12:48:10.745Z,5.20
2023-01-10T12:50:46.373Z,5.50
2023-01-10T12:53:33.125Z,4.68
2023-01-10T12:56:06.140Z,4.70
2023-01-10T12:58:52.912Z,5.28
2023-01-10T13:01:30.019Z,3.63
2023-01-10T13:06:40.182Z,5.47
2023-01-10T13:09:30.604Z,2.40
2023-01-10T13:12:09.541Z,3.70
2023-01-10T13:14:46.183Z,4.28
2023-01-10T13:17:20.034Z,5.40
2023-01-10T13:20:16.528Z,3.97
2023-01-10T13:22:48.154Z,5.30
2023-01-10T13:25:38.018Z,5.03
2023-01-10T13:28:14.893Z,3.15
2023-01-10T13:30:42.913Z,4.90
2023-01-10T13:33:26.066Z,3.95
2023-01-10T13:35:58.034Z,6.93
2023-01-10T13:38:35.521Z,7.68
2023-01-10T13:41:29.200Z,6.22
2023-01-10T13:44:07.267Z,8.30
2023-01-10T13:46:40.941Z,5.00
2023-01-10T13:49:11.715Z,4.95
2023-01-10T13:51:59.792Z,5.78
2023-01-10T13:54:28.485Z,6.85
2023-01-10T13:56:56.366Z,5.40
2023-01-10T13:59:42.647Z,5.28
2023-01-10T14:02:28.989Z,6.45
2023-01-10T14:05:06.172Z,6.93
2023-01-10T14:10:19.855Z,6.63
2023-01-10T14:12:57.218Z,9.70
2023-01-10T14:15:38.977Z,9.90
2023-01-10T14:18:06.718Z,8.65
2023-01-10T14:20:36.743Z,11.32
2023-01-10T14:23:16.420Z,7.25
2023-01-10T14:25:45.734Z,8.48
2023-01-10T14:28:25.474Z,7.78
2023-01-10T14:31:08.928Z,7.03
2023-01-10T14:33:37.785Z,8.45
2023-01-10T14:36:14.745Z,11.05
2023-01-10T14:38:46.707Z,7.10
2023-01-10T14:41:28.062Z,8.80
2023-01-10T14:44:11.772Z,7.07
2023-01-10T14:46:52.406Z,6.18
2023-01-10T14:49:24.558Z,6.22
2023-01-10T14:52:10.835Z,8.10
2023-01-10T14:54:38.676Z,8.32
2023-01-10T14:57:19.094Z,9.50
2023-01-10T14:59:48.059Z,6.68
2023-01-10T15:02:26.007Z,7.32
2023-01-10T15:05:09.667Z,8.05
2023-01-10T15:07:38.501Z,5.68
2023-01-10T15:10:25.064Z,11.30
2023-01-10T15:12:57.552Z,6.30
2023-01-10T15:15:32.593Z,7.93
2023-01-10T15:18:05.639Z,7.38
2023-01-10T15:20:37.528Z,10.85
2023-01-10T15:23:05.371Z,7.20
2023-01-10T15:25:39.039Z,7.75
2023-01-10T15:28:15.761Z,5.82
2023-01-10T15:30:44.367Z,6.20
2023-01-10T15:33:27.061Z,7.68
2023-01-10T15:35:55.907Z,10.02
2023-01-10T15:38:30.237Z,7.03
2023-01-10T15:41:04.370Z,9.02
2023-01-10T15:43:35.028Z,7.82
2023-01-10T15:46:05.607Z,6.90
2023-01-10T15:48:41.032Z,6.82
2023-01-10T15:51:25.817Z,6.55
2023-01-10T15:53:57.481Z,8.40
2023-01-10T15:56:30.174Z,8.20
2023-01-10T15:59:00.108Z,7.05
2023-01-10T16:01:29.138Z,7.95
2023-01-10T16:04:03.997Z,7.68
2023-01-10T16:06:31.762Z,6.50
2023-01-10T16:09:03.694Z,8.90
2023-01-10T16:12:05.313Z,5.28
2023-01-10T16:14:33.816Z,11.80
2023-01-10T16:17:05.133Z,9.13
2023-01-10T16:19:33.156Z,6.43
2023-01-10T16:22:01.318Z,4.68
2023-01-10T16:24:32.366Z,7.15
2023-01-10T16:27:04.410Z,9.95
2023-01-10T16:29:32.821Z,11.18
2023-01-10T16:32:00.564Z,9.35
2023-01-10T16:34:28.559Z,7.63
2023-01-10T16:36:56.510Z,8.77
2023-01-10T16:39:24.850Z,8.77
2023-01-10T16:42:11.483Z,8.75
2023-01-10T16:44:40.490Z,8.43
2023-01-10T16:47:08.198Z,6.63
2023-01-10T16:49:36.040Z,9.80
2023-01-10T16:52:04.080Z,9.77
2023-01-10T16:54:35.540Z,8.27
2023-01-10T16:57:03.619Z,9.48
2023-01-10T16:59:31.910Z,8.48
2023-01-10T17:01:59.829Z,5.80
2023-01-10T17:04:35.255Z,9.65
2023-01-10T17:07:03.472Z,6.97
2023-01-10T17:09:31.466Z,8.77
2023-01-10T17:12:11.096Z,9.15
2023-01-10T17:14:39.228Z,7.10
2023-01-10T17:17:06.968Z,4.30
2023-01-10T17:19:34.862Z,10.05
2023-01-10T17:22:02.937Z,9.25
2023-01-10T17:24:31.135Z,8.18
2023-01-10T17:26:58.956Z,9.57
2023-01-10T17:29:26.781Z,8.35
2023-01-10T17:31:54.601Z,11.45
2023-01-10T17:34:22.555Z,8.45
2023-01-10T17:36:50.436Z,9.15
2023-01-10T17:39:18.260Z,7.88
2023-01-10T17:41:46.075Z,8.48
2023-01-10T17:44:14.218Z,7.78
2023-01-10T17:46:42.101Z,13.75
2023-01-10T17:49:11.866Z,10.80
2023-01-10T17:51:41.072Z,8.52
2023-01-10T17:54:08.736Z,11.77
2023-01-10T17:56:36.523Z,9.77
2023-01-10T17:59:04.233Z,10.05
2023-01-10T18:01:32.233Z,9.70
2023-01-10T18:04:00.337Z,9.25
2023-01-10T18:06:28.916Z,8.65
2023-01-10T18:08:56.773Z,6.25
2023-01-10T18:11:25.444Z,9.80
2023-01-10T18:13:53.549Z,18.95
2023-01-10T18:16:22.694Z,27.98
2023-01-10T18:18:50.858Z,32.92
2023-01-10T18:21:20.925Z,23.77
2023-01-10T18:23:50.080Z,18.77
2023-01-10T18:26:18.060Z,15.77
2023-01-10T18:28:45.922Z,15.32
2023-01-10T18:31:17.296Z,9.60
2023-01-10T18:33:47.025Z,7.43
2023-01-10T18:36:17.644Z,6.38
2023-01-10T18:38:49.120Z,7.15
2023-01-10T18:41:17.753Z,5.15
2023-01-10T18:43:46.266Z,8.00
2023-01-10T18:46:20.535Z,7.68
2023-01-10T18:48:51.686Z,5.68
2023-01-10T18:51:19.748Z,8.00
2023-01-10T18:53:49.075Z,5.15
2023-01-10T18:56:17.343Z,18.40
2023-01-10T18:58:45.391Z,30.13
2023-01-10T19:01:16.542Z,31.67
2023-01-10T19:03:44.996Z,21.67
2023-01-10T19:06:16.806Z,17.85
2023-01-10T19:08:46.577Z,15.95
2023-01-10T19:11:16.624Z,13.40
2023-01-10T19:13:45.877Z,11.55
2023-01-10T19:16:19.555Z,12.55
2023-01-10T19:18:53.563Z,12.95
2023-01-10T19:21:24.980Z,9.98
2023-01-10T19:23:58.383Z,9.13
2023-01-10T19:26:26.565Z,8.70
2023-01-10T19:28:54.739Z,9.93
2023-01-10T19:31:29.126Z,12.65
2023-01-10T19:34:01.049Z,9.73
2023-01-10T19:36:34.775Z,8.68
2023-01-10T19:39:03.064Z,9.52
2023-01-10T19:41:31.173Z,9.15
2023-01-10T19:44:01.806Z,7.95
2023-01-10T19:46:32.596Z,9.50
2023-01-10T19:49:07.822Z,8.60
2023-01-10T19:51:40.419Z,9.13
2023-01-10T19:54:09.521Z,7.15
2023-01-10T19:56:37.400Z,9.60
2023-01-10T19:59:05.409Z,9.05
2023-01-10T20:01:34.100Z,11.07
2023-01-10T20:04:04.365Z,9.68
2023-01-10T20:06:35.574Z,12.40
2023-01-10T20:09:04.789Z,14.45
2023-01-10T20:11:38.288Z,25.42
2023-01-10T20:14:08.902Z,21.98
2023-01-10T20:16:37.651Z,16.98
2023-01-10T20:19:09.200Z,15.07
2023-01-10T20:21:37.905Z,14.20
2023-01-10T20:24:16.805Z,10.77
2023-01-10T20:26:46.184Z,11.38
2023-01-10T20:29:14.947Z,11.32
2023-01-10T20:31:43.430Z,9.48
2023-01-10T20:34:11.160Z,8.23
2023-01-10T20:36:39.844Z,10.90
2023-01-10T20:39:07.605Z,9.93
2023-01-10T20:41:37.337Z,12.15
2023-01-10T20:44:05.084Z,9.93
2023-01-10T20:46:34.148Z,9.32
2023-01-10T20:49:03.359Z,8.65
2023-01-10T20:51:33.522Z,12.40
2023-01-10T20:54:02.323Z,16.35
2023-01-10T20:56:31.713Z,14.75
2023-01-10T20:59:00.049Z,17.48
2023-01-10T21:01:34.577Z,15.50
2023-01-10T21:04:09.834Z,11.90
2023-01-10T21:06:37.861Z,12.05
2023-01-10T21:09:06.192Z,14.65
2023-01-10T21:11:47.532Z,13.18
2023-01-10T21:14:19.832Z,11.07
2023-01-10T21:16:49.435Z,10.98
2023-01-10T21:19:17.491Z,13.00
2023-01-10T21:21:45.324Z,11.20
2023-01-10T21:24:13.187Z,8.23
2023-01-10T21:26:41.008Z,11.23
2023-01-10T21:29:08.902Z,11.23
2023-01-10T21:31:38.166Z,10.48
2023-01-10T21:34:05.975Z,14.13
2023-01-10T21:36:33.703Z,11.65
2023-01-10T21:39:01.490Z,11.68
2023-01-10T21:41:47.880Z,11.50
2023-01-10T21:44:15.746Z,10.00
2023-01-10T21:46:46.915Z,10.60
2023-01-10T21:49:15.501Z,9.70
2023-01-10T21:51:44.025Z,9.95
2023-01-10T21:54:11.846Z,10.88
2023-01-10T21:56:40.865Z,10.73
2023-01-10T21:59:08.764Z,9.52
2023-01-10T22:01:36.460Z,8.85
2023-01-10T22:04:04.501Z,8.98
2023-01-10T22:06:32.437Z,9.93
2023-01-10T22:09:00.229Z,10.30
2023-01-10T22:11:28.083Z,11.45
2023-01-10T22:13:57.301Z,13.07
2023-01-10T22:16:25.154Z,20.60
2023-01-10T22:18:53.029Z,21.27
2023-01-10T22:21:22.398Z,18.33
2023-01-10T22:23:50.258Z,12.82
2023-01-10T22:26:17.961Z,11.88
2023-01-10T22:28:46.019Z,10.90
2023-01-10T22:31:14.052Z,11.02
2023-01-10T22:33:42.877Z,8.75
2023-01-10T22:36:15.514Z,10.48
2023-01-10T22:38:44.133Z,8.00
2023-01-10T22:41:20.139Z,7.20
2023-01-10T22:43:48.132Z,6.88
2023-01-10T22:46:16.345Z,9.60
2023-01-10T22:48:44.900Z,11.07
2023-01-10T22:51:14.265Z,10.00
2023-01-10T22:53:46.059Z,7.28
2023-01-10T22:56:13.834Z,6.50
2023-01-10T22:58:47.803Z,8.52
2023-01-10T23:01:18.571Z,6.55
2023-01-10T23:03:46.625Z,7.63
2023-01-10T23:06:15.400Z,7.30
2023-01-10T23:08:43.679Z,7.43
2023-01-10T23:11:14.197Z,8.15
2023-01-10T23:13:42.496Z,7.90
2023-01-10T23:16:14.804Z,8.30
2023-01-10T23:18:43.213Z,9.95
2023-01-10T23:21:11.626Z,7.18
2023-01-10T23:23:39.340Z,8.73
2023-01-10T23:26:11.110Z,7.35
2023-01-10T23:28:47.232Z,7.45
2023-01-10T23:31:17.733Z,6.68
2023-01-10T23:33:45.898Z,8.70
2023-01-10T23:36:14.124Z,6.70
2023-01-10T23:38:41.982Z,7.07
2023-01-10T23:41:09.890Z,6.75
2023-01-10T23:43:37.985Z,7.22
2023-01-10T23:46:06.843Z,9.18
2023-01-10T23:48:35.991Z,7.07
2023-01-10T23:51:04.026Z,11.40
2023-01-10T23:53:31.750Z,6.22
2023-01-10T23:56:05.335Z,6.35
2023-01-10T23:58:33.059Z,8.65
